sensor_id;sensor_type;location;lat;lon;timestamp;temperature;humidity
39453;DHT22;25154;-33.684;151.102;2023-02-01T00:00:03;25.80;99.90
39453;DHT22;25154;-33.684;151.102;2023-02-01T00:05:09;26.10;99.90
39453;DHT22;25154;-33.684;151.102;2023-02-01T00:10:12;26.50;99.90
39453;DHT22;25154;-33.684;151.102;2023-02-01T00:15:15;26.70;99.90
39453;DHT22;25154;-33.684;151.102;2023-02-01T00:20:17;26.90;99.90
39453;DHT22;25154;-33.684;151.102;2023-02-01T00:25:19;27.10;99.90
39453;DHT22;25154;-33.684;151.102;2023-02-01T00:30:23;27.40;99.90
39453;DHT22;25154;-33.684;151.102;2023-02-01T00:35:25;27.80;99.90
39453;DHT22;25154;-33.684;151.102;2023-02-01T00:40:28;28.00;99.90
39453;DHT22;25154;-33.684;151.102;2023-02-01T00:45:30;28.20;99.90
39453;DHT22;25154;-33.684;151.102;2023-02-01T00:50:32;28.40;99.90
39453;DHT22;25154;-33.684;151.102;2023-02-01T00:55:35;28.90;99.90
39453;DHT22;25154;-33.684;151.102;2023-02-01T01:00:37;29.00;99.90
39453;DHT22;25154;-33.684;151.102;2023-02-01T01:05:41;29.10;99.90
39453;DHT22;25154;-33.684;151.102;2023-02-01T01:10:43;29.50;99.90
39453;DHT22;25154;-33.684;151.102;2023-02-01T01:15:46;29.60;99.90
39453;DHT22;25154;-33.684;151.102;2023-02-01T01:20:48;30.20;99.90
39453;DHT22;25154;-33.684;151.102;2023-02-01T01:25:50;30.40;99.90
39453;DHT22;25154;-33.684;151.102;2023-02-01T01:30:54;30.10;99.90
39453;DHT22;25154;-33.684;151.102;2023-02-01T01:35:56;29.80;99.90
39453;DHT22;25154;-33.684;151.102;2023-02-01T01:40:59;30.70;99.90
39453;DHT22;25154;-33.684;151.102;2023-02-01T01:46:01;32.10;99.80
39453;DHT22;25154;-33.684;151.102;2023-02-01T01:51:09;32.40;99.20
39453;DHT22;25154;-33.684;151.102;2023-02-01T01:56:13;32.40;99.00
39453;DHT22;25154;-33.684;151.102;2023-02-01T02:01:16;32.40;98.70
39453;DHT22;25154;-33.684;151.102;2023-02-01T02:11:20;33.30;98.70
39453;DHT22;25154;-33.684;151.102;2023-02-01T02:43:11;33.20;99.90
39453;DHT22;25154;-33.684;151.102;2023-02-01T02:59:09;33.70;98.10
39453;DHT22;25154;-33.684;151.102;2023-02-01T03:04:32;34.20;97.80
39453;DHT22;25154;-33.684;151.102;2023-02-01T03:09:37;32.40;99.70
39453;DHT22;25154;-33.684;151.102;2023-02-01T03:14:46;32.60;99.90
39453;DHT22;25154;-33.684;151.102;2023-02-01T03:19:52;33.60;99.90
39453;DHT22;25154;-33.684;151.102;2023-02-01T03:25:07;32.80;99.20
39453;DHT22;25154;-33.684;151.102;2023-02-01T03:30:22;31.20;99.90
39453;DHT22;25154;-33.684;151.102;2023-02-01T03:40:36;33.10;99.90
39453;DHT22;25154;-33.684;151.102;2023-02-01T03:45:42;34.60;99.30
39453;DHT22;25154;-33.684;151.102;2023-02-01T03:50:50;35.00;97.90
39453;DHT22;25154;-33.684;151.102;2023-02-01T03:55:54;34.90;97.20
39453;DHT22;25154;-33.684;151.102;2023-02-01T04:00:59;35.40;96.40
39453;DHT22;25154;-33.684;151.102;2023-02-01T04:06:01;34.90;96.10
39453;DHT22;25154;-33.684;151.102;2023-02-01T04:11:04;35.00;96.10
39453;DHT22;25154;-33.684;151.102;2023-02-01T04:16:06;35.30;96.30
39453;DHT22;25154;-33.684;151.102;2023-02-01T04:21:09;35.40;95.30
39453;DHT22;25154;-33.684;151.102;2023-02-01T04:26:11;34.20;97.50
39453;DHT22;25154;-33.684;151.102;2023-02-01T04:31:15;34.40;97.60
39453;DHT22;25154;-33.684;151.102;2023-02-01T04:36:17;34.70;96.60
39453;DHT22;25154;-33.684;151.102;2023-02-01T04:41:22;35.20;97.10
39453;DHT22;25154;-33.684;151.102;2023-02-01T04:46:24;36.30;95.80
39453;DHT22;25154;-33.684;151.102;2023-02-01T04:51:26;36.10;95.00
39453;DHT22;25154;-33.684;151.102;2023-02-01T04:56:29;36.40;95.50
39453;DHT22;25154;-33.684;151.102;2023-02-01T05:01:32;36.40;95.20
39453;DHT22;25154;-33.684;151.102;2023-02-01T05:06:34;35.40;94.50
39453;DHT22;25154;-33.684;151.102;2023-02-01T05:11:37;35.70;95.90
39453;DHT22;25154;-33.684;151.102;2023-02-01T05:16:57;35.80;95.60
39453;DHT22;25154;-33.684;151.102;2023-02-01T05:21:59;36.10;94.80
39453;DHT22;25154;-33.684;151.102;2023-02-01T05:27:02;36.10;94.70
39453;DHT22;25154;-33.684;151.102;2023-02-01T05:32:04;36.30;95.60
39453;DHT22;25154;-33.684;151.102;2023-02-01T05:37:07;36.30;94.80
39453;DHT22;25154;-33.684;151.102;2023-02-01T05:42:09;36.30;95.50
39453;DHT22;25154;-33.684;151.102;2023-02-01T05:47:12;36.40;95.20
39453;DHT22;25154;-33.684;151.102;2023-02-01T05:52:14;36.50;94.30
39453;DHT22;25154;-33.684;151.102;2023-02-01T05:57:20;36.50;93.80
39453;DHT22;25154;-33.684;151.102;2023-02-01T06:02:23;36.40;94.70
39453;DHT22;25154;-33.684;151.102;2023-02-01T06:07:25;35.90;94.20
39453;DHT22;25154;-33.684;151.102;2023-02-01T06:12:28;35.90;95.20
39453;DHT22;25154;-33.684;151.102;2023-02-01T06:17:30;35.90;95.40
39453;DHT22;25154;-33.684;151.102;2023-02-01T06:27:43;34.80;94.60
39453;DHT22;25154;-33.684;151.102;2023-02-01T06:32:51;34.10;96.10
39453;DHT22;25154;-33.684;151.102;2023-02-01T06:37:56;34.80;96.10
39453;DHT22;25154;-33.684;151.102;2023-02-01T06:42:59;34.60;95.40
39453;DHT22;25154;-33.684;151.102;2023-02-01T06:48:01;33.80;95.10
39453;DHT22;25154;-33.684;151.102;2023-02-01T06:53:04;33.50;96.00
39453;DHT22;25154;-33.684;151.102;2023-02-01T06:58:06;33.80;95.40
39453;DHT22;25154;-33.684;151.102;2023-02-01T07:03:08;34.30;96.10
39453;DHT22;25154;-33.684;151.102;2023-02-01T07:08:11;34.20;95.70
39453;DHT22;25154;-33.684;151.102;2023-02-01T07:13:13;34.20;96.50
39453;DHT22;25154;-33.684;151.102;2023-02-01T07:18:16;34.50;95.50
39453;DHT22;25154;-33.684;151.102;2023-02-01T07:23:18;33.80;95.10
39453;DHT22;25154;-33.684;151.102;2023-02-01T07:28:21;32.70;96.30
39453;DHT22;25154;-33.684;151.102;2023-02-01T07:33:24;31.50;97.60
39453;DHT22;25154;-33.684;151.102;2023-02-01T07:38:28;30.20;99.50
39453;DHT22;25154;-33.684;151.102;2023-02-01T07:43:31;29.50;99.90
39453;DHT22;25154;-33.684;151.102;2023-02-01T07:48:34;29.00;99.90
39453;DHT22;25154;-33.684;151.102;2023-02-01T07:53:37;29.20;99.90
39453;DHT22;25154;-33.684;151.102;2023-02-01T07:58:40;29.30;99.90
39453;DHT22;25154;-33.684;151.102;2023-02-01T08:03:44;29.50;99.90
39453;DHT22;25154;-33.684;151.102;2023-02-01T08:08:47;29.20;99.90
39453;DHT22;25154;-33.684;151.102;2023-02-01T08:13:50;28.60;99.90
39453;DHT22;25154;-33.684;151.102;2023-02-01T08:18:53;27.50;99.90
39453;DHT22;25154;-33.684;151.102;2023-02-01T08:23:56;26.60;99.90
39453;DHT22;25154;-33.684;151.102;2023-02-01T08:29:00;25.80;99.90
39453;DHT22;25154;-33.684;151.102;2023-02-01T08:34:04;25.00;99.90
39453;DHT22;25154;-33.684;151.102;2023-02-01T08:39:06;24.50;99.90
39453;DHT22;25154;-33.684;151.102;2023-02-01T08:44:10;24.20;99.90
39453;DHT22;25154;-33.684;151.102;2023-02-01T08:49:12;23.90;99.90
39453;DHT22;25154;-33.684;151.102;2023-02-01T08:54:15;23.50;99.90
39453;DHT22;25154;-33.684;151.102;2023-02-01T08:59:17;23.30;99.90
39453;DHT22;25154;-33.684;151.102;2023-02-01T09:04:19;23.20;99.90
39453;DHT22;25154;-33.684;151.102;2023-02-01T09:09:23;23.00;99.90
39453;DHT22;25154;-33.684;151.102;2023-02-01T09:14:25;22.80;99.90
39453;DHT22;25154;-33.684;151.102;2023-02-01T09:19:27;22.70;99.90
39453;DHT22;25154;-33.684;151.102;2023-02-01T09:24:30;22.60;99.90
39453;DHT22;25154;-33.684;151.102;2023-02-01T09:29:32;22.50;99.90
39453;DHT22;25154;-33.684;151.102;2023-02-01T09:34:34;22.30;99.90
39453;DHT22;25154;-33.684;151.102;2023-02-01T09:39:37;22.30;99.90
39453;DHT22;25154;-33.684;151.102;2023-02-01T09:45:14;22.10;99.90
39453;DHT22;25154;-33.684;151.102;2023-02-01T09:50:38;22.10;99.90
39453;DHT22;25154;-33.684;151.102;2023-02-01T09:56:05;22.00;99.90
39453;DHT22;25154;-33.684;151.102;2023-02-01T10:01:23;21.90;99.90
39453;DHT22;25154;-33.684;151.102;2023-02-01T10:23:56;21.60;99.90
39453;DHT22;25154;-33.684;151.102;2023-02-01T10:29:04;21.60;99.90
39453;DHT22;25154;-33.684;151.102;2023-02-01T10:34:30;21.50;99.90
39453;DHT22;25154;-33.684;151.102;2023-02-01T10:39:33;21.30;99.90
39453;DHT22;25154;-33.684;151.102;2023-02-01T10:44:39;21.20;99.90
39453;DHT22;25154;-33.684;151.102;2023-02-01T10:54:50;21.00;99.90
39453;DHT22;25154;-33.684;151.102;2023-02-01T10:59:53;21.00;99.90
39453;DHT22;25154;-33.684;151.102;2023-02-01T11:05:09;20.90;99.90
39453;DHT22;25154;-33.684;151.102;2023-02-01T11:15:37;20.80;99.90
39453;DHT22;25154;-33.684;151.102;2023-02-01T11:20:40;20.80;99.90
39453;DHT22;25154;-33.684;151.102;2023-02-01T11:26:00;20.80;99.90
39453;DHT22;25154;-33.684;151.102;2023-02-01T11:31:06;20.80;99.90
39453;DHT22;25154;-33.684;151.102;2023-02-01T11:36:20;20.90;99.90
39453;DHT22;25154;-33.684;151.102;2023-02-01T11:41:26;21.00;99.90
39453;DHT22;25154;-33.684;151.102;2023-02-01T11:46:33;21.10;99.90
39453;DHT22;25154;-33.684;151.102;2023-02-01T11:51:47;21.10;99.90
39453;DHT22;25154;-33.684;151.102;2023-02-01T12:02:20;21.20;99.90
39453;DHT22;25154;-33.684;151.102;2023-02-01T12:13:37;21.30;99.90
39453;DHT22;25154;-33.684;151.102;2023-02-01T12:34:45;21.50;99.90
39453;DHT22;25154;-33.684;151.102;2023-02-01T12:40:17;21.50;99.90
39453;DHT22;25154;-33.684;151.102;2023-02-01T12:45:35;21.50;99.90
39453;DHT22;25154;-33.684;151.102;2023-02-01T12:56:04;21.50;99.90
39453;DHT22;25154;-33.684;151.102;2023-02-01T13:01:23;21.60;99.90
39453;DHT22;25154;-33.684;151.102;2023-02-01T13:06:37;21.60;99.90
39453;DHT22;25154;-33.684;151.102;2023-02-01T13:11:44;21.60;99.90
39453;DHT22;25154;-33.684;151.102;2023-02-01T13:17:10;21.60;99.90
39453;DHT22;25154;-33.684;151.102;2023-02-01T13:27:48;21.70;99.90
39453;DHT22;25154;-33.684;151.102;2023-02-01T13:43:53;21.70;99.90
39453;DHT22;25154;-33.684;151.102;2023-02-01T13:48:59;21.60;99.90
39453;DHT22;25154;-33.684;151.102;2023-02-01T13:54:35;21.60;99.90
39453;DHT22;25154;-33.684;151.102;2023-02-01T14:04:48;21.60;99.90
39453;DHT22;25154;-33.684;151.102;2023-02-01T14:09:52;21.50;99.90
39453;DHT22;25154;-33.684;151.102;2023-02-01T14:15:19;21.40;99.90
39453;DHT22;25154;-33.684;151.102;2023-02-01T14:20:43;21.40;99.90
39453;DHT22;25154;-33.684;151.102;2023-02-01T14:25:59;21.50;99.90
39453;DHT22;25154;-33.684;151.102;2023-02-01T14:31:16;21.50;99.90
39453;DHT22;25154;-33.684;151.102;2023-02-01T14:36:19;21.40;99.90
39453;DHT22;25154;-33.684;151.102;2023-02-01T14:41:35;21.40;99.90
39453;DHT22;25154;-33.684;151.102;2023-02-01T14:52:42;21.30;99.90
39453;DHT22;25154;-33.684;151.102;2023-02-01T14:57:48;21.70;99.90
39453;DHT22;25154;-33.684;151.102;2023-02-01T15:02:54;21.40;99.90
39453;DHT22;25154;-33.684;151.102;2023-02-01T15:08:05;21.40;99.90
39453;DHT22;25154;-33.684;151.102;2023-02-01T15:13:29;21.30;99.90
39453;DHT22;25154;-33.684;151.102;2023-02-01T15:18:35;21.30;99.90
39453;DHT22;25154;-33.684;151.102;2023-02-01T15:23:37;21.30;99.90
39453;DHT22;25154;-33.684;151.102;2023-02-01T15:28:40;21.30;99.90
39453;DHT22;25154;-33.684;151.102;2023-02-01T15:33:56;21.30;99.90
39453;DHT22;25154;-33.684;151.102;2023-02-01T15:39:22;21.20;99.90
39453;DHT22;25154;-33.684;151.102;2023-02-01T15:44:44;21.10;99.90
39453;DHT22;25154;-33.684;151.102;2023-02-01T15:50:04;21.20;99.90
39453;DHT22;25154;-33.684;151.102;2023-02-01T16:00:34;21.20;99.90
39453;DHT22;25154;-33.684;151.102;2023-02-01T16:05:43;21.10;99.90
39453;DHT22;25154;-33.684;151.102;2023-02-01T16:10:47;21.10;99.90
39453;DHT22;25154;-33.684;151.102;2023-02-01T16:15:53;21.20;99.90
39453;DHT22;25154;-33.684;151.102;2023-02-01T16:20:56;21.20;99.90
39453;DHT22;25154;-33.684;151.102;2023-02-01T16:25:58;21.00;99.90
39453;DHT22;25154;-33.684;151.102;2023-02-01T16:31:01;20.90;99.90
39453;DHT22;25154;-33.684;151.102;2023-02-01T16:36:04;20.80;99.90
39453;DHT22;25154;-33.684;151.102;2023-02-01T16:41:09;20.70;99.90
39453;DHT22;25154;-33.684;151.102;2023-02-01T16:46:18;20.90;99.90
39453;DHT22;25154;-33.684;151.102;2023-02-01T16:51:24;20.90;99.90
39453;DHT22;25154;-33.684;151.102;2023-02-01T16:56:35;20.80;99.90
39453;DHT22;25154;-33.684;151.102;2023-02-01T17:01:40;21.00;99.90
39453;DHT22;25154;-33.684;151.102;2023-02-01T17:06:51;21.00;99.90
39453;DHT22;25154;-33.684;151.102;2023-02-01T17:11:56;21.00;99.90
39453;DHT22;25154;-33.684;151.102;2023-02-01T17:16:58;21.00;99.90
39453;DHT22;25154;-33.684;151.102;2023-02-01T17:22:01;20.90;99.90
39453;DHT22;25154;-33.684;151.102;2023-02-01T17:27:06;20.80;99.90
39453;DHT22;25154;-33.684;151.102;2023-02-01T17:32:19;20.70;99.90
39453;DHT22;25154;-33.684;151.102;2023-02-01T17:37:30;20.60;99.90
39453;DHT22;25154;-33.684;151.102;2023-02-01T17:42:34;20.50;99.90
39453;DHT22;25154;-33.684;151.102;2023-02-01T17:47:38;20.40;99.90
39453;DHT22;25154;-33.684;151.102;2023-02-01T17:52:42;20.40;99.90
39453;DHT22;25154;-33.684;151.102;2023-02-01T17:57:45;20.50;99.90
39453;DHT22;25154;-33.684;151.102;2023-02-01T18:02:48;20.50;99.90
39453;DHT22;25154;-33.684;151.102;2023-02-01T18:07:51;20.40;99.90
39453;DHT22;25154;-33.684;151.102;2023-02-01T18:12:56;20.40;99.90
39453;DHT22;25154;-33.684;151.102;2023-02-01T18:17:58;20.20;99.90
39453;DHT22;25154;-33.684;151.102;2023-02-01T18:23:02;20.10;99.90
39453;DHT22;25154;-33.684;151.102;2023-02-01T18:28:05;19.90;99.90
39453;DHT22;25154;-33.684;151.102;2023-02-01T18:33:10;19.80;99.90
39453;DHT22;25154;-33.684;151.102;2023-02-01T18:38:13;19.50;99.90
39453;DHT22;25154;-33.684;151.102;2023-02-01T18:43:16;19.60;99.90
39453;DHT22;25154;-33.684;151.102;2023-02-01T18:48:18;19.50;99.90
39453;DHT22;25154;-33.684;151.102;2023-02-01T18:53:25;19.40;99.90
39453;DHT22;25154;-33.684;151.102;2023-02-01T18:58:29;19.40;99.90
39453;DHT22;25154;-33.684;151.102;2023-02-01T19:03:32;19.40;99.90
39453;DHT22;25154;-33.684;151.102;2023-02-01T19:08:35;19.40;99.90
39453;DHT22;25154;-33.684;151.102;2023-02-01T19:13:39;19.40;99.90
39453;DHT22;25154;-33.684;151.102;2023-02-01T19:18:41;19.40;99.90
39453;DHT22;25154;-33.684;151.102;2023-02-01T19:23:43;19.40;99.90
39453;DHT22;25154;-33.684;151.102;2023-02-01T19:28:46;19.30;99.90
39453;DHT22;25154;-33.684;151.102;2023-02-01T19:33:51;18.50;99.90
39453;DHT22;25154;-33.684;151.102;2023-02-01T19:38:54;19.20;99.90
39453;DHT22;25154;-33.684;151.102;2023-02-01T19:44:00;19.10;99.90
39453;DHT22;25154;-33.684;151.102;2023-02-01T19:49:04;19.10;99.90
39453;DHT22;25154;-33.684;151.102;2023-02-01T19:54:12;19.10;99.90
39453;DHT22;25154;-33.684;151.102;2023-02-01T19:59:15;19.20;99.90
39453;DHT22;25154;-33.684;151.102;2023-02-01T20:04:18;19.30;99.90
39453;DHT22;25154;-33.684;151.102;2023-02-01T20:09:22;19.20;99.90
39453;DHT22;25154;-33.684;151.102;2023-02-01T20:14:25;19.20;99.90
39453;DHT22;25154;-33.684;151.102;2023-02-01T20:19:31;19.30;99.90
39453;DHT22;25154;-33.684;151.102;2023-02-01T20:24:33;19.40;99.90
39453;DHT22;25154;-33.684;151.102;2023-02-01T20:29:40;19.50;99.90
39453;DHT22;25154;-33.684;151.102;2023-02-01T20:34:42;19.60;99.90
39453;DHT22;25154;-33.684;151.102;2023-02-01T20:39:48;19.70;99.90
39453;DHT22;25154;-33.684;151.102;2023-02-01T20:44:53;19.80;99.90
39453;DHT22;25154;-33.684;151.102;2023-02-01T20:50:02;19.30;99.90
39453;DHT22;25154;-33.684;151.102;2023-02-01T20:55:04;20.00;99.90
39453;DHT22;25154;-33.684;151.102;2023-02-01T21:00:10;20.10;99.90
39453;DHT22;25154;-33.684;151.102;2023-02-01T21:05:13;20.30;99.90
39453;DHT22;25154;-33.684;151.102;2023-02-01T21:10:15;20.40;99.90
39453;DHT22;25154;-33.684;151.102;2023-02-01T21:15:18;20.50;99.90
39453;DHT22;25154;-33.684;151.102;2023-02-01T21:20:21;20.50;99.90
39453;DHT22;25154;-33.684;151.102;2023-02-01T21:25:24;20.90;99.90
39453;DHT22;25154;-33.684;151.102;2023-02-01T21:30:26;21.00;99.90
39453;DHT22;25154;-33.684;151.102;2023-02-01T21:35:29;21.20;99.90
39453;DHT22;25154;-33.684;151.102;2023-02-01T21:40:31;21.40;99.90
39453;DHT22;25154;-33.684;151.102;2023-02-01T21:45:34;21.60;99.90
39453;DHT22;25154;-33.684;151.102;2023-02-01T21:50:39;21.90;99.90
39453;DHT22;25154;-33.684;151.102;2023-02-01T21:55:42;22.20;99.90
39453;DHT22;25154;-33.684;151.102;2023-02-01T22:00:45;22.40;99.90
39453;DHT22;25154;-33.684;151.102;2023-02-01T22:05:51;22.60;99.90
39453;DHT22;25154;-33.684;151.102;2023-02-01T22:10:53;22.60;99.90
39453;DHT22;25154;-33.684;151.102;2023-02-01T22:15:57;23.00;99.90
39453;DHT22;25154;-33.684;151.102;2023-02-01T22:21:00;23.10;99.90
39453;DHT22;25154;-33.684;151.102;2023-02-01T22:26:07;23.20;99.90
39453;DHT22;25154;-33.684;151.102;2023-02-01T22:31:10;23.50;99.90
39453;DHT22;25154;-33.684;151.102;2023-02-01T22:36:13;23.80;99.90
39453;DHT22;25154;-33.684;151.102;2023-02-01T22:41:18;23.80;99.90
39453;DHT22;25154;-33.684;151.102;2023-02-01T22:46:22;24.10;99.90
39453;DHT22;25154;-33.684;151.102;2023-02-01T22:51:28;24.40;99.90
39453;DHT22;25154;-33.684;151.102;2023-02-01T22:56:38;24.80;99.90
39453;DHT22;25154;-33.684;151.102;2023-02-01T23:01:44;25.10;99.90
39453;DHT22;25154;-33.684;151.102;2023-02-01T23:06:49;24.90;99.90
39453;DHT22;25154;-33.684;151.102;2023-02-01T23:11:55;25.40;99.90
39453;DHT22;25154;-33.684;151.102;2023-02-01T23:16:57;25.70;99.90
39453;DHT22;25154;-33.684;151.102;2023-02-01T23:22:01;28.70;99.90
39453;DHT22;25154;-33.684;151.102;2023-02-01T23:27:05;25.90;99.90
39453;DHT22;25154;-33.684;151.102;2023-02-01T23:32:08;26.30;99.90
39453;DHT22;25154;-33.684;151.102;2023-02-01T23:37:12;26.40;99.90
39453;DHT22;25154;-33.684;151.102;2023-02-01T23:42:14;26.50;99.90
39453;DHT22;25154;-33.684;151.102;2023-02-01T23:47:17;26.70;99.90
39453;DHT22;25154;-33.684;151.102;2023-02-01T23:52:19;26.90;99.90
39453;DHT22;25154;-33.684;151.102;2023-02-01T23:57:21;27.10;99.90
